Time;durP1;ratioP1;P1;durP2;ratioP2;P2;SDS_P1;SDS_P2;PMS_P1;PMS_P2;Temp;Humidity;BMP_temperature;BMP_pressure;BME280_temperature;BME280_humidity;BME280_pressure;Samples;Min_cycle;Max_cycle;Signal;HPM_P1;HPM_P2
2022/06/06 00:01:57;;;;;;;13.70;10.43;;;19.40;99.90;;;;;;4128736;28;20318;-85
2022/06/06 00:03:59;;;;;;;14.77;9.90;;;19.30;99.90;;;;;;4124488;28;20239;-85
2022/06/06 00:06:01;;;;;;;14.77;10.03;;;19.20;99.90;;;;;;4126249;28;20308;-85
2022/06/06 00:08:03;;;;;;;11.33;9.20;;;19.20;99.90;;;;;;4145921;28;20246;-85
2022/06/06 00:10:08;;;;;;;12.33;8.90;;;19.20;99.90;;;;;;4145129;28;20308;-85
2022/06/06 00:12:10;;;;;;;10.93;8.53;;;19.20;99.90;;;;;;4144179;28;20639;-85
2022/06/06 00:14:13;;;;;;;11.83;8.63;;;19.20;99.90;;;;;;4127564;28;20694;-85
2022/06/06 00:16:15;;;;;;;10.70;8.13;;;19.20;99.90;;;;;;4126678;28;20300;-85
2022/06/06 00:18:17;;;;;;;9.43;7.57;;;19.20;99.90;;;;;;4120134;28;20288;-85
2022/06/06 00:20:19;;;;;;;10.53;7.67;;;19.20;99.90;;;;;;4140462;28;20218;-83
2022/06/06 00:22:21;;;;;;;13.27;7.10;;;19.20;99.90;;;;;;4138214;28;20556;-82
2022/06/06 00:24:23;;;;;;;8.70;6.63;;;19.10;99.90;;;;;;4120826;28;20231;-84
2022/06/06 00:26:28;;;;;;;8.43;6.60;;;19.10;99.90;;;;;;4125385;28;20290;-81
2022/06/06 00:28:30;;;;;;;10.03;6.93;;;19.10;99.90;;;;;;4131618;28;20245;-81
2022/06/06 00:30:32;;;;;;;8.83;6.50;;;19.00;99.90;;;;;;4129415;28;20220;-81
2022/06/06 00:34:52;;;;;;;6.47;5.20;;;19.10;99.90;;;;;;4146822;28;20222;-81
2022/06/06 00:36:54;;;;;;;6.87;4.90;;;19.00;99.90;;;;;;4143752;28;20196;-80
2022/06/06 00:38:56;;;;;;;7.93;4.73;;;19.00;99.90;;;;;;4142023;28;20218;-81
2022/06/06 00:40:59;;;;;;;6.10;4.60;;;19.00;99.90;;;;;;4142584;28;20226;-81
2022/06/06 00:43:03;;;;;;;6.33;4.40;;;19.00;99.90;;;;;;4148741;28;20229;-81
2022/06/06 00:45:26;;;;;;;7.80;4.40;;;19.00;99.90;;;;;;4154196;28;20217;-81
2022/06/06 00:48:18;;;;;;;5.60;4.30;;;19.00;99.90;;;;;;4144264;28;20245;-81
2022/06/06 00:51:10;;;;;;;6.10;3.97;;;19.00;99.90;;;;;;4139472;28;20218;-81
2022/06/06 00:54:02;;;;;;;4.50;3.73;;;19.00;99.90;;;;;;4146376;28;20683;-81
2022/06/06 00:56:54;;;;;;;7.00;3.63;;;19.00;99.90;;;;;;4144910;28;20211;-81
2022/06/06 00:59:46;;;;;;;7.57;4.03;;;18.90;99.90;;;;;;4151513;28;20243;-81
2022/06/06 01:02:40;;;;;;;6.10;3.87;;;18.90;99.90;;;;;;4144856;28;20217;-80
2022/06/06 01:05:33;;;;;;;7.30;3.67;;;18.90;99.90;;;;;;4149431;28;20217;-80
2022/06/06 01:08:26;;;;;;;3.97;3.20;;;18.90;99.90;;;;;;4147171;28;20262;-81
2022/06/06 01:11:18;;;;;;;3.60;2.97;;;18.90;99.90;;;;;;4140475;28;20685;-81
2022/06/06 01:14:11;;;;;;;5.20;3.47;;;18.80;99.90;;;;;;4149140;28;20230;-81
2022/06/06 01:17:03;;;;;;;5.40;3.67;;;18.80;99.90;;;;;;4133474;28;20205;-82
2022/06/06 01:19:55;;;;;;;4.73;3.43;;;18.80;99.90;;;;;;4142372;28;20214;-82
2022/06/06 01:22:48;;;;;;;7.13;3.70;;;18.80;99.90;;;;;;4144044;28;20283;-82
2022/06/06 01:25:42;;;;;;;4.30;3.40;;;18.80;99.90;;;;;;4143416;28;20221;-82
2022/06/06 01:28:34;;;;;;;3.63;3.00;;;18.70;99.90;;;;;;4140779;28;20210;-82
2022/06/06 01:31:27;;;;;;;4.87;3.47;;;18.80;99.90;;;;;;4139968;28;20239;-82
2022/06/06 01:34:20;;;;;;;5.10;3.30;;;18.70;99.90;;;;;;4145103;28;20236;-82
2022/06/06 01:36:26;;;;;;;4.13;2.97;;;18.70;99.90;;;;;;4136106;28;20306;-82
2022/06/06 01:38:28;;;;;;;4.50;3.30;;;18.70;99.90;;;;;;4117988;28;20322;-82
2022/06/06 01:40:37;;;;;;;6.50;3.37;;;18.70;99.90;;;;;;4146853;28;20291;-82
2022/06/06 01:42:46;;;;;;;3.60;3.00;;;18.60;99.90;;;;;;4135212;28;20243;-82
2022/06/06 01:44:53;;;;;;;4.27;3.10;;;18.60;99.90;;;;;;4180945;23;20235;-82
2022/06/06 01:46:58;;;;;;;3.87;2.73;;;18.60;99.90;;;;;;4190051;28;20216;-81
2022/06/06 01:49:00;;;;;;;4.60;3.20;;;18.60;99.90;;;;;;4178590;28;20211;-81
2022/06/06 01:51:09;;;;;;;2.90;2.60;;;18.60;99.90;;;;;;4190366;28;20258;-81
2022/06/06 01:53:15;;;;;;;4.77;3.13;;;18.60;99.90;;;;;;4175708;28;20240;-82
2022/06/06 01:55:17;;;;;;;4.00;2.50;;;18.50;99.90;;;;;;4190520;28;20207;-82
2022/06/06 01:57:19;;;;;;;5.03;3.10;;;18.50;99.90;;;;;;4171296;28;20211;-82
2022/06/06 01:59:22;;;;;;;4.27;2.90;;;18.50;99.90;;;;;;4187619;28;20242;-82
2022/06/06 02:01:24;;;;;;;5.57;2.80;;;18.50;99.90;;;;;;4169936;28;20207;-82
2022/06/06 02:03:26;;;;;;;5.57;2.80;;;18.50;99.90;;;;;;4185134;28;20258;-82
2022/06/06 02:05:29;;;;;;;2.63;2.30;;;18.40;99.90;;;;;;4186267;28;20200;-82
2022/06/06 02:07:30;;;;;;;5.03;2.90;;;18.40;99.90;;;;;;4184294;28;20232;-82
2022/06/06 02:09:34;;;;;;;6.40;2.33;;;18.40;99.90;;;;;;4183086;28;20239;-82
2022/06/06 02:11:36;;;;;;;4.57;2.50;;;18.40;99.90;;;;;;4183290;28;20239;-82
2022/06/06 02:13:38;;;;;;;4.10;2.67;;;18.40;99.90;;;;;;4168629;28;20727;-82
2022/06/06 02:15:41;;;;;;;3.20;2.43;;;18.30;99.90;;;;;;4167759;28;20217;-82
2022/06/06 02:17:43;;;;;;;3.00;2.40;;;18.30;99.90;;;;;;4156835;28;20204;-82
2022/06/06 02:19:45;;;;;;;3.60;2.50;;;18.30;99.90;;;;;;4185995;28;20216;-82
2022/06/06 02:21:47;;;;;;;5.43;2.70;;;18.30;99.90;;;;;;4186862;28;20263;-81
2022/06/06 02:23:49;;;;;;;3.00;2.47;;;18.30;99.90;;;;;;4184993;28;20230;-81
2022/06/06 02:25:54;;;;;;;2.73;2.40;;;18.20;99.90;;;;;;4185408;28;20210;-82
2022/06/06 02:27:56;;;;;;;4.53;2.57;;;18.20;99.90;;;;;;4180748;28;20230;-82
2022/06/06 02:30:01;;;;;;;2.50;2.30;;;18.20;99.90;;;;;;4187513;28;20730;-82
2022/06/06 02:32:05;;;;;;;4.13;2.40;;;18.20;99.90;;;;;;4170018;28;20209;-81
2022/06/06 02:34:08;;;;;;;4.30;2.30;;;18.20;99.90;;;;;;4178462;28;20227;-82
2022/06/06 02:36:11;;;;;;;4.00;2.67;;;18.10;99.90;;;;;;4168341;28;20337;-81
2022/06/06 02:38:14;;;;;;;4.43;2.33;;;18.20;99.90;;;;;;4183843;28;20215;-81
2022/06/06 02:40:19;;;;;;;3.07;2.57;;;18.10;99.90;;;;;;4180221;28;20208;-82
2022/06/06 02:42:22;;;;;;;5.83;2.00;;;18.10;99.90;;;;;;4189560;28;20637;-82
2022/06/06 02:44:25;;;;;;;2.30;2.10;;;18.10;99.90;;;;;;4168100;28;20659;-82
2022/06/06 02:46:27;;;;;;;5.30;2.10;;;18.10;99.90;;;;;;4174847;28;20219;-82
2022/06/06 02:48:30;;;;;;;3.90;2.30;;;18.10;99.90;;;;;;4171328;28;20229;-82
2022/06/06 02:50:33;;;;;;;2.97;2.00;;;18.00;99.90;;;;;;4163334;28;20211;-81
2022/06/06 02:52:35;;;;;;;2.30;2.07;;;18.00;99.90;;;;;;4189428;28;20226;-82
2022/06/06 02:54:37;;;;;;;3.40;2.20;;;18.00;99.90;;;;;;4173173;28;20339;-82
2022/06/06 02:56:39;;;;;;;3.60;2.20;;;17.90;99.90;;;;;;4185467;28;20199;-81
2022/06/06 02:58:43;;;;;;;2.33;2.03;;;17.90;99.90;;;;;;4156882;28;20275;-81
2022/06/06 03:00:45;;;;;;;2.30;1.90;;;17.90;99.90;;;;;;4182911;28;20212;-82
2022/06/06 03:02:47;;;;;;;2.57;2.07;;;17.90;99.90;;;;;;4185323;28;20214;-82
2022/06/06 03:04:49;;;;;;;3.07;2.07;;;17.90;99.90;;;;;;4184884;28;20233;-82
2022/06/06 03:06:59;;;;;;;3.27;2.37;;;17.90;99.90;;;;;;4190252;28;20233;-81
2022/06/06 03:09:15;;;;;;;6.30;2.03;;;17.90;99.90;;;;;;4189406;28;20222;-81
2022/06/06 03:11:39;;;;;;;3.67;2.20;;;17.80;99.90;;;;;;4192513;28;20233;-82
2022/06/06 03:13:57;;;;;;;6.27;2.50;;;17.80;99.90;;;;;;4189676;28;20232;-82
2022/06/06 03:21:18;;;;;;;3.27;2.20;;;17.70;99.90;;;;;;4183758;28;20206;-81
2022/06/06 03:23:43;;;;;;;4.83;2.20;;;17.70;99.90;;;;;;4178087;28;20226;-81
2022/06/06 03:25:50;;;;;;;6.13;2.60;;;17.70;99.90;;;;;;4178379;28;20211;-81
2022/06/06 03:27:59;;;;;;;3.77;2.10;;;17.70;99.90;;;;;;4180980;28;20596;-81
2022/06/06 03:30:09;;;;;;;5.43;2.67;;;17.60;99.90;;;;;;4154762;28;20743;-81
2022/06/06 03:32:19;;;;;;;3.43;2.17;;;17.60;99.90;;;;;;4158227;28;20261;-81
2022/06/06 03:34:28;;;;;;;5.73;2.60;;;17.60;99.90;;;;;;4176420;28;20222;-81
2022/06/06 03:36:35;;;;;;;2.87;2.33;;;17.60;99.90;;;;;;4163474;28;21252;-81
2022/06/06 03:38:41;;;;;;;3.67;2.53;;;17.60;99.90;;;;;;4181529;28;20305;-82
2022/06/06 03:40:54;;;;;;;2.47;2.13;;;17.60;99.90;;;;;;4160948;28;20583;-82
2022/06/06 03:43:02;;;;;;;2.90;2.00;;;17.60;99.90;;;;;;4179517;28;20684;-82
2022/06/06 03:45:20;;;;;;;3.73;2.40;;;17.60;99.90;;;;;;4178511;28;20585;-82
2022/06/06 03:47:35;;;;;;;2.87;2.50;;;17.50;99.90;;;;;;4182774;28;20677;-82
2022/06/06 03:49:48;;;;;;;2.50;2.00;;;17.50;99.90;;;;;;4157391;28;20221;-81
2022/06/06 03:52:00;;;;;;;3.83;2.47;;;17.50;99.90;;;;;;4159342;28;20675;-81
2022/06/06 03:54:29;;;;;;;3.43;2.07;;;17.50;99.90;;;;;;4177714;28;20277;-81
2022/06/06 03:56:44;;;;;;;3.43;2.20;;;17.50;99.90;;;;;;4163722;28;20207;-81
2022/06/06 03:58:47;;;;;;;3.97;2.30;;;17.40;99.90;;;;;;4178120;28;20222;-82
2022/06/06 04:00:55;;;;;;;2.97;2.20;;;17.40;99.90;;;;;;4158684;28;20215;-82
2022/06/06 04:02:57;;;;;;;3.73;2.07;;;17.40;99.90;;;;;;4184098;28;20215;-81
2022/06/06 04:05:02;;;;;;;6.67;2.47;;;17.40;99.90;;;;;;4160382;28;20287;-81
2022/06/06 04:07:05;;;;;;;2.90;1.97;;;17.40;99.90;;;;;;4184166;28;20223;-81
2022/06/06 04:09:07;;;;;;;2.90;2.37;;;17.30;99.90;;;;;;4182888;28;20260;-81
2022/06/06 04:11:23;;;;;;;2.57;2.10;;;17.30;99.90;;;;;;4164778;28;20645;-81
2022/06/06 04:13:43;;;;;;;4.20;2.20;;;17.30;99.90;;;;;;4151482;28;20242;-81
2022/06/06 04:15:56;;;;;;;3.50;2.40;;;17.30;99.90;;;;;;4179844;28;20209;-81
2022/06/06 04:18:11;;;;;;;2.93;2.23;;;17.30;99.90;;;;;;4178563;28;20577;-81
2022/06/06 04:20:23;;;;;;;2.73;2.10;;;17.30;99.90;;;;;;4173583;28;20211;-81
2022/06/06 04:22:39;;;;;;;2.83;2.40;;;17.20;99.90;;;;;;4174527;28;20679;-81
2022/06/06 04:25:01;;;;;;;3.33;2.50;;;17.20;99.90;;;;;;4182094;28;20225;-81
2022/06/06 04:27:14;;;;;;;4.53;2.50;;;17.20;99.90;;;;;;4157944;28;20234;-81
2022/06/06 04:29:25;;;;;;;2.63;2.20;;;17.20;99.90;;;;;;4180951;28;20212;-81
2022/06/06 04:31:39;;;;;;;2.40;2.17;;;17.20;99.90;;;;;;4170416;28;20214;-81
2022/06/06 04:33:47;;;;;;;5.07;2.23;;;17.20;99.90;;;;;;4178296;28;20264;-82
2022/06/06 04:36:01;;;;;;;2.87;2.20;;;17.20;99.90;;;;;;4157504;28;20218;-81
2022/06/06 04:38:11;;;;;;;4.97;2.50;;;17.10;99.90;;;;;;4159210;28;20206;-81
2022/06/06 04:40:21;;;;;;;3.70;2.43;;;17.10;99.90;;;;;;4178431;28;20656;-81
2022/06/06 04:42:31;;;;;;;2.90;2.13;;;17.10;99.90;;;;;;4183564;28;20206;-81
2022/06/06 04:44:41;;;;;;;3.73;2.20;;;17.10;99.90;;;;;;4184505;28;20234;-81
2022/06/06 04:46:50;;;;;;;2.53;2.30;;;17.10;99.90;;;;;;4181838;28;20252;-81
2022/06/06 04:48:53;;;;;;;5.17;2.53;;;17.10;99.90;;;;;;4182212;28;20325;-81
2022/06/06 04:50:56;;;;;;;2.77;2.27;;;17.10;99.90;;;;;;4155463;28;20226;-81
2022/06/06 04:53:03;;;;;;;3.63;2.30;;;17.10;99.90;;;;;;4160465;28;20215;-81
2022/06/06 04:55:08;;;;;;;3.47;2.30;;;17.10;99.90;;;;;;4171799;28;20231;-81
2022/06/06 04:57:12;;;;;;;4.57;2.33;;;17.10;99.90;;;;;;4165720;28;20210;-81
2022/06/06 04:59:16;;;;;;;2.67;2.23;;;17.10;99.90;;;;;;4181847;28;20198;-81
2022/06/06 05:01:18;;;;;;;2.83;2.20;;;17.10;99.90;;;;;;4170110;28;20212;-81
2022/06/06 05:03:21;;;;;;;3.97;2.40;;;17.10;99.90;;;;;;4163071;28;20234;-81
2022/06/06 05:05:30;;;;;;;5.43;2.17;;;17.10;99.90;;;;;;4184721;28;20206;-81
2022/06/06 05:07:49;;;;;;;2.50;2.07;;;17.20;99.90;;;;;;4167918;28;20226;-81
2022/06/06 05:10:18;;;;;;;3.50;2.33;;;17.20;99.90;;;;;;4164269;28;20684;-82
2022/06/06 05:12:36;;;;;;;4.87;2.23;;;17.20;99.90;;;;;;4171325;28;20212;-81
2022/06/06 05:14:48;;;;;;;4.77;2.23;;;17.30;99.90;;;;;;4171124;28;20323;-82
2022/06/06 05:17:04;;;;;;;2.63;2.30;;;17.30;99.90;;;;;;4179636;28;20273;-81
2022/06/06 05:19:30;;;;;;;3.33;2.10;;;17.30;99.90;;;;;;4174256;28;20234;-81
2022/06/06 05:21:55;;;;;;;3.40;2.33;;;17.30;99.90;;;;;;4165879;28;20295;-82
2022/06/06 05:24:11;;;;;;;2.87;2.47;;;17.40;99.90;;;;;;4155492;28;20228;-81
2022/06/06 05:26:32;;;;;;;2.53;2.17;;;17.40;99.90;;;;;;4161257;28;20242;-81
2022/06/06 05:28:59;;;;;;;4.00;2.43;;;17.40;99.90;;;;;;4180884;28;20218;-81
2022/06/06 05:31:10;;;;;;;2.70;2.10;;;17.50;99.90;;;;;;4154079;28;20215;-81
2022/06/06 05:33:17;;;;;;;3.17;2.20;;;17.50;99.90;;;;;;4160227;28;20223;-81
2022/06/06 05:35:33;;;;;;;4.50;2.40;;;17.50;99.90;;;;;;4184439;28;20232;-81
2022/06/06 05:37:53;;;;;;;3.13;2.20;;;17.60;99.90;;;;;;4174931;28;20217;-81
2022/06/06 05:40:11;;;;;;;4.17;2.17;;;17.60;99.90;;;;;;4180218;28;20217;-81
2022/06/06 05:42:25;;;;;;;3.37;2.07;;;17.60;99.90;;;;;;4170596;28;20261;-81
2022/06/06 05:44:41;;;;;;;2.43;2.03;;;17.60;99.90;;;;;;4153288;28;20270;-81
2022/06/06 05:46:51;;;;;;;3.43;2.13;;;17.70;99.90;;;;;;4179057;28;20248;-81
2022/06/06 05:49:07;;;;;;;2.33;2.03;;;17.70;99.90;;;;;;4171217;28;20242;-81
2022/06/06 05:51:23;;;;;;;2.90;1.90;;;17.70;99.90;;;;;;4183123;28;20217;-82
2022/06/06 05:53:51;;;;;;;3.97;2.10;;;17.80;99.90;;;;;;4178800;28;20241;-82
2022/06/06 05:56:05;;;;;;;2.63;2.00;;;17.80;99.90;;;;;;4176248;28;20206;-82
2022/06/06 05:58:34;;;;;;;3.70;1.70;;;17.90;99.90;;;;;;4168599;28;20204;-82
2022/06/06 06:00:47;;;;;;;2.90;2.20;;;17.90;99.90;;;;;;4157812;28;20211;-82
2022/06/06 06:03:21;;;;;;;2.10;1.90;;;18.00;99.90;;;;;;4170882;28;20213;-81
2022/06/06 06:05:33;;;;;;;1.93;1.83;;;18.00;99.90;;;;;;4160729;28;20771;-82
2022/06/06 06:07:44;;;;;;;3.07;1.70;;;18.10;99.90;;;;;;4180579;28;20226;-82
2022/06/06 06:10:05;;;;;;;2.70;2.10;;;18.10;99.90;;;;;;4186435;28;20223;-82
2022/06/06 06:12:26;;;;;;;2.23;1.80;;;18.10;99.90;;;;;;4160788;28;20221;-81
2022/06/06 06:14:39;;;;;;;2.00;1.80;;;18.20;99.90;;;;;;4169239;28;20262;-81
2022/06/06 06:16:45;;;;;;;4.23;1.90;;;18.20;99.90;;;;;;4173905;28;20297;-81
2022/06/06 06:18:53;;;;;;;2.00;1.60;;;18.30;99.90;;;;;;4161416;28;20212;-82
2022/06/06 06:21:00;;;;;;;2.60;1.83;;;18.30;99.90;;;;;;4167800;28;20222;-82
2022/06/06 06:23:06;;;;;;;2.03;1.60;;;18.30;99.90;;;;;;4173369;28;20306;-81
2022/06/06 06:25:10;;;;;;;2.30;1.70;;;18.30;99.90;;;;;;4173583;28;20658;-81
2022/06/06 06:27:13;;;;;;;2.10;1.70;;;18.40;99.90;;;;;;4155634;28;20212;-82
2022/06/06 06:29:15;;;;;;;2.57;1.77;;;18.40;99.90;;;;;;4157808;28;20233;-81
2022/06/06 06:31:32;;;;;;;2.40;1.93;;;18.40;99.90;;;;;;4156268;28;20212;-82
2022/06/06 06:33:51;;;;;;;2.30;1.87;;;18.50;99.90;;;;;;4172911;28;21444;-82
2022/06/06 06:36:04;;;;;;;3.30;2.00;;;18.50;99.90;;;;;;4155517;28;20722;-82
2022/06/06 06:38:20;;;;;;;2.37;1.80;;;18.50;99.90;;;;;;4152259;28;20200;-81
2022/06/06 06:40:34;;;;;;;2.87;1.80;;;18.60;99.90;;;;;;4178607;28;20588;-81
2022/06/06 06:42:51;;;;;;;3.30;2.07;;;18.60;99.90;;;;;;4170075;28;20262;-81
2022/06/06 06:44:55;;;;;;;5.60;2.47;;;18.60;99.90;;;;;;4175302;28;20240;-82
2022/06/06 06:46:59;;;;;;;2.67;1.90;;;18.70;99.90;;;;;;4174637;28;20209;-82
2022/06/06 06:49:12;;;;;;;3.70;1.70;;;18.70;99.90;;;;;;4174387;28;20227;-82
2022/06/06 06:51:21;;;;;;;3.03;2.07;;;18.80;99.90;;;;;;4157274;28;20252;-81
2022/06/06 06:53:59;;;;;;;2.53;2.00;;;18.80;99.90;;;;;;4171572;28;20208;-82
2022/06/06 06:56:08;;;;;;;2.77;1.93;;;18.80;99.90;;;;;;4147545;28;20252;-81
2022/06/06 06:58:35;;;;;;;2.93;1.70;;;18.90;99.90;;;;;;4170622;28;20553;-82
2022/06/06 07:00:46;;;;;;;2.10;1.90;;;18.90;99.90;;;;;;4175586;28;20208;-82
2022/06/06 07:10:36;;;;;;;2.63;1.63;;;19.20;99.90;;;;;;4173051;28;20216;-82
2022/06/06 07:12:56;;;;;;;1.93;1.70;;;19.30;99.90;;;;;;4160987;28;20641;-82
2022/06/06 07:15:13;;;;;;;2.83;1.70;;;19.30;99.90;;;;;;4173339;28;20244;-81
2022/06/06 07:17:16;;;;;;;2.80;1.90;;;19.30;99.90;;;;;;4165186;28;20201;-81
2022/06/06 07:19:20;;;;;;;2.70;2.20;;;19.40;99.90;;;;;;4180731;28;20578;-82
2022/06/06 07:21:24;;;;;;;2.83;1.90;;;19.50;99.90;;;;;;4175785;28;20200;-81
2022/06/06 07:23:33;;;;;;;3.33;2.03;;;19.60;99.90;;;;;;4186012;28;20199;-83
2022/06/06 07:25:39;;;;;;;5.70;2.00;;;19.70;99.90;;;;;;4191592;28;20209;-82
2022/06/06 07:27:41;;;;;;;2.90;1.80;;;19.70;99.90;;;;;;4184230;28;20251;-82
2022/06/06 07:29:43;;;;;;;4.93;1.90;;;19.80;99.90;;;;;;4174775;28;20233;-83
2022/06/06 07:32:01;;;;;;;2.77;1.80;;;19.80;99.90;;;;;;4188993;28;20217;-82
2022/06/06 07:34:31;;;;;;;3.13;2.10;;;19.90;99.90;;;;;;4188461;28;20223;-82
2022/06/06 07:36:46;;;;;;;2.40;1.93;;;20.10;99.90;;;;;;4168160;28;20245;-83
2022/06/06 07:39:05;;;;;;;3.40;1.93;;;20.20;99.90;;;;;;4183163;28;20225;-83
2022/06/06 07:41:28;;;;;;;3.20;1.80;;;20.30;99.90;;;;;;4192193;28;20229;-82
2022/06/06 07:43:53;;;;;;;3.87;1.80;;;20.30;99.90;;;;;;4159904;28;20597;-83
2022/06/06 07:46:06;;;;;;;2.50;1.87;;;20.30;99.90;;;;;;4159900;28;20213;-82
2022/06/06 07:48:25;;;;;;;5.27;1.80;;;20.40;99.90;;;;;;4177307;28;20658;-81
2022/06/06 07:50:33;;;;;;;2.43;1.80;;;20.40;99.90;;;;;;4177155;28;20225;-82
2022/06/06 07:52:43;;;;;;;2.23;1.80;;;20.50;99.90;;;;;;4174712;28;20208;-82
2022/06/06 07:54:53;;;;;;;3.50;2.00;;;20.50;99.90;;;;;;4161539;28;20814;-82
2022/06/06 07:57:03;;;;;;;2.80;1.87;;;20.50;99.90;;;;;;4180945;28;20210;-81
2022/06/06 07:59:17;;;;;;;2.87;2.20;;;20.60;99.90;;;;;;4178857;28;20280;-82
2022/06/06 08:01:26;;;;;;;2.57;2.03;;;20.50;99.90;;;;;;4180499;28;20199;-81
2022/06/06 08:03:38;;;;;;;2.37;1.90;;;20.60;99.90;;;;;;4183470;28;20248;-82
2022/06/06 08:06:05;;;;;;;2.63;1.90;;;20.70;99.90;;;;;;4161095;28;20207;-81
2022/06/06 08:08:13;;;;;;;3.23;1.93;;;20.80;99.90;;;;;;4183645;28;20207;-82
2022/06/06 08:10:25;;;;;;;3.63;1.90;;;20.90;99.90;;;;;;4184752;28;20581;-81
2022/06/06 08:12:50;;;;;;;3.80;1.80;;;21.00;99.90;;;;;;4181610;28;20210;-82
2022/06/06 08:15:07;;;;;;;3.00;1.97;;;21.10;99.90;;;;;;4172277;28;20238;-82
2022/06/06 08:17:22;;;;;;;2.70;1.90;;;21.10;99.90;;;;;;4168101;28;20214;-81
2022/06/06 08:19:41;;;;;;;7.57;2.50;;;21.20;99.90;;;;;;4187103;28;20274;-82
2022/06/06 08:21:51;;;;;;;3.70;1.90;;;21.20;99.90;;;;;;4186459;28;20203;-81
2022/06/06 08:23:57;;;;;;;4.17;2.17;;;21.30;99.90;;;;;;4183031;28;20720;-82
2022/06/06 08:26:00;;;;;;;4.20;1.87;;;21.40;99.90;;;;;;4178005;28;20289;-82
2022/06/06 08:28:05;;;;;;;2.87;2.03;;;21.40;99.90;;;;;;4182035;28;20214;-81
2022/06/06 08:30:08;;;;;;;4.13;2.27;;;21.50;99.90;;;;;;4171299;28;20325;-82
2022/06/06 08:32:11;;;;;;;2.77;2.20;;;21.50;99.90;;;;;;4177152;28;20754;-82
2022/06/06 08:34:13;;;;;;;2.83;2.17;;;21.50;99.90;;;;;;4160411;28;20266;-82
2022/06/06 08:36:35;;;;;;;2.53;2.00;;;21.60;99.90;;;;;;4154256;28;20291;-81
2022/06/06 08:38:51;;;;;;;3.10;2.30;;;21.70;99.90;;;;;;4177206;28;20205;-82
2022/06/06 08:41:20;;;;;;;2.47;1.80;;;21.70;99.90;;;;;;4177051;28;20216;-82
2022/06/06 08:43:46;;;;;;;3.50;2.10;;;21.70;99.90;;;;;;4165710;28;20223;-81
2022/06/06 08:46:07;;;;;;;1.83;1.57;;;21.80;99.90;;;;;;4169838;28;20217;-82
2022/06/06 08:48:17;;;;;;;2.47;1.97;;;21.80;99.90;;;;;;4167702;28;20511;-82
2022/06/06 08:50:46;;;;;;;2.37;1.70;;;21.80;99.90;;;;;;4153930;28;20275;-82
2022/06/06 08:53:25;;;;;;;2.30;1.80;;;21.80;99.90;;;;;;4165564;28;20211;-82
2022/06/06 08:56:16;;;;;;;3.50;2.13;;;21.90;99.90;;;;;;4165777;28;20216;-82
2022/06/06 08:58:38;;;;;;;2.97;1.97;;;22.00;99.90;;;;;;4144161;28;20209;-82
2022/06/06 09:00:49;;;;;;;2.97;1.97;;;22.00;99.90;;;;;;4143127;28;20306;-82
2022/06/06 09:03:24;;;;;;;5.17;2.00;;;22.00;99.90;;;;;;4146454;28;20218;-82
2022/06/06 09:05:56;;;;;;;2.97;1.80;;;22.00;99.90;;;;;;4145120;28;20216;-82
2022/06/06 09:08:36;;;;;;;2.00;1.80;;;22.00;99.90;;;;;;4168133;28;20212;-82
2022/06/06 09:11:03;;;;;;;3.57;1.83;;;22.00;99.90;;;;;;4170034;28;20295;-81
2022/06/06 09:13:47;;;;;;;3.27;1.67;;;22.10;99.90;;;;;;4173123;28;20211;-82
2022/06/06 09:16:29;;;;;;;4.77;1.70;;;22.20;99.90;;;;;;4173116;28;20304;-81
2022/06/06 09:18:52;;;;;;;2.03;1.67;;;22.20;99.20;;;;;;4171276;28;20290;-82
2022/06/06 09:21:19;;;;;;;3.10;1.57;;;22.30;99.10;;;;;;4174177;28;20211;-81
2022/06/06 09:23:58;;;;;;;3.30;1.70;;;22.40;98.30;;;;;;4165162;28;20295;-82
2022/06/06 09:26:02;;;;;;;3.47;1.77;;;22.50;97.90;;;;;;4169647;28;20208;-81
2022/06/06 09:28:34;;;;;;;4.07;1.87;;;22.50;95.50;;;;;;4169987;28;20231;-81
2022/06/06 09:30:58;;;;;;;3.73;1.87;;;22.50;96.60;;;;;;4168969;28;20239;-81
2022/06/06 09:33:32;;;;;;;2.97;1.97;;;22.50;96.10;;;;;;4147079;28;20272;-81
2022/06/06 09:36:11;;;;;;;3.97;1.80;;;22.50;95.70;;;;;;4167044;28;20219;-81
2022/06/06 09:38:16;;;;;;;4.90;2.00;;;22.50;96.70;;;;;;4168171;28;20213;-82
2022/06/06 09:40:30;;;;;;;4.63;2.00;;;22.60;97.60;;;;;;4153003;28;20454;-81
2022/06/06 09:42:40;;;;;;;3.50;1.80;;;22.70;96.30;;;;;;4171448;28;20587;-80
2022/06/06 09:45:17;;;;;;;2.83;1.57;;;22.80;96.20;;;;;;4152842;28;20261;-81
2022/06/06 09:47:42;;;;;;;2.50;1.83;;;22.90;93.00;;;;;;4159038;28;20215;-81
2022/06/06 09:50:34;;;;;;;3.83;2.17;;;23.00;93.60;;;;;;4152136;28;20263;-80
2022/06/06 09:53:17;;;;;;;2.90;1.60;;;23.10;93.10;;;;;;4130603;28;20309;-80
2022/06/06 10:01:23;;;;;;;2.77;1.90;;;23.20;91.30;;;;;;4176473;28;20213;-80
2022/06/06 10:03:59;;;;;;;2.80;1.80;;;23.20;92.10;;;;;;4151489;28;20223;-80
2022/06/06 10:06:29;;;;;;;3.30;1.80;;;23.20;92.10;;;;;;4178005;28;20221;-80
2022/06/06 10:09:19;;;;;;;2.07;1.67;;;23.30;91.80;;;;;;4176133;28;20232;-80
2022/06/06 10:11:44;;;;;;;2.47;1.40;;;23.40;91.20;;;;;;4172858;28;20211;-80
2022/06/06 10:14:01;;;;;;;3.40;1.80;;;23.40;86.60;;;;;;4154303;28;20262;-80
2022/06/06 10:16:35;;;;;;;2.63;1.60;;;23.50;86.30;;;;;;4158396;28;20217;-82
2022/06/06 10:19:03;;;;;;;3.37;1.80;;;23.50;79.60;;;;;;4162726;28;20229;-80
2022/06/06 10:21:44;;;;;;;3.03;1.60;;;23.50;82.00;;;;;;4185289;28;20218;-84
2022/06/06 10:24:04;;;;;;;2.00;1.47;;;23.60;83.20;;;;;;4131231;28;20236;-82
2022/06/06 10:26:45;;;;;;;3.87;1.53;;;23.60;83.10;;;;;;4175379;28;20221;-82
2022/06/06 10:29:15;;;;;;;2.90;1.57;;;23.60;81.70;;;;;;4158078;28;20267;-81
2022/06/06 10:31:32;;;;;;;4.10;2.50;;;23.70;80.80;;;;;;4176823;28;20239;-82
2022/06/06 10:33:57;;;;;;;2.80;1.43;;;23.80;81.60;;;;;;4174062;28;20524;-82
2022/06/06 10:36:16;;;;;;;4.30;1.37;;;23.80;75.10;;;;;;4152771;28;20604;-82
2022/06/06 10:38:44;;;;;;;3.07;1.57;;;24.00;78.80;;;;;;4173410;28;20284;-83
2022/06/06 10:40:58;;;;;;;2.77;1.40;;;24.10;77.40;;;;;;4168394;28;20283;-82
2022/06/06 10:43:23;;;;;;;3.93;1.73;;;24.20;74.80;;;;;;4171230;28;20214;-82
2022/06/06 10:45:31;;;;;;;2.97;1.63;;;24.40;78.90;;;;;;4146542;28;20219;-81
2022/06/06 10:47:51;;;;;;;2.13;1.50;;;24.50;74.00;;;;;;4149188;28;20731;-81
2022/06/06 10:50:02;;;;;;;2.97;1.30;;;24.50;69.80;;;;;;4163306;28;20285;-80
2022/06/06 10:52:29;;;;;;;1.63;1.30;;;24.60;62.80;;;;;;4175818;28;20244;-80
2022/06/06 10:55:07;;;;;;;3.60;1.97;;;24.70;59.90;;;;;;4173773;28;20229;-80
2022/06/06 10:57:53;;;;;;;2.80;1.50;;;24.70;63.60;;;;;;4153832;28;20301;-80
2022/06/06 11:00:14;;;;;;;1.83;1.33;;;24.90;62.80;;;;;;4167984;28;20230;-82
2022/06/06 11:02:57;;;;;;;4.70;1.50;;;24.90;60.30;;;;;;4145488;28;20227;-82
2022/06/06 11:05:37;;;;;;;2.40;1.50;;;25.00;62.40;;;;;;4168114;28;20237;-82
2022/06/06 11:08:18;;;;;;;2.27;1.50;;;25.00;57.80;;;;;;4162302;28;20239;-79
2022/06/06 11:10:56;;;;;;;6.53;1.40;;;25.10;56.60;;;;;;4160510;28;20336;-79
2022/06/06 11:13:24;;;;;;;1.60;1.50;;;25.20;58.00;;;;;;4145880;28;20218;-80
2022/06/06 11:15:35;;;;;;;2.37;1.67;;;25.30;55.20;;;;;;4174607;28;20217;-80
2022/06/06 11:18:17;;;;;;;2.43;1.47;;;25.40;55.00;;;;;;4166679;28;20206;-80
2022/06/06 11:20:48;;;;;;;2.37;1.50;;;25.60;55.50;;;;;;4152240;28;20302;-80
2022/06/06 11:22:56;;;;;;;2.37;1.20;;;25.80;55.30;;;;;;4164908;28;20214;-81
2022/06/06 11:25:07;;;;;;;1.80;1.17;;;25.90;54.80;;;;;;4161794;28;20288;-81
2022/06/06 11:27:30;;;;;;;4.17;1.53;;;26.20;55.40;;;;;;4168895;28;20277;-80
2022/06/06 11:30:02;;;;;;;3.90;1.40;;;26.30;52.50;;;;;;4172200;28;20275;-81
2022/06/06 11:32:27;;;;;;;1.63;1.40;;;26.40;52.80;;;;;;4140796;28;20310;-80
2022/06/06 11:35:09;;;;;;;1.40;1.20;;;26.30;51.70;;;;;;4154041;28;20284;-79
2022/06/06 11:37:42;;;;;;;2.63;1.50;;;26.60;52.90;;;;;;4174211;28;20252;-80
2022/06/06 11:40:28;;;;;;;2.63;1.43;;;26.80;52.10;;;;;;4165584;28;20289;-80
2022/06/06 11:43:00;;;;;;;1.33;1.23;;;26.70;47.40;;;;;;4143773;28;20211;-80
2022/06/06 11:45:37;;;;;;;1.93;1.53;;;26.50;47.50;;;;;;4172607;28;20674;-79
2022/06/06 11:47:53;;;;;;;2.33;1.63;;;26.40;48.10;;;;;;4154586;28;20215;-80
2022/06/06 11:50:30;;;;;;;3.83;1.30;;;27.00;48.20;;;;;;4174167;28;20238;-79
2022/06/06 11:53:13;;;;;;;1.70;1.20;;;27.80;45.30;;;;;;4169925;28;20652;-79
2022/06/06 11:55:35;;;;;;;7.17;1.40;;;28.50;43.90;;;;;;4177271;28;20219;-78
2022/06/06 11:58:09;;;;;;;1.97;1.30;;;29.40;42.30;;;;;;4165190;28;20234;-79
2022/06/06 12:00:22;;;;;;;2.47;1.30;;;30.00;40.10;;;;;;4174471;28;20213;-79
2022/06/06 12:02:47;;;;;;;1.73;1.33;;;30.20;38.90;;;;;;4150610;28;20207;-81
2022/06/06 12:05:27;;;;;;;2.13;1.30;;;30.10;38.30;;;;;;4167169;28;20650;-80
2022/06/06 12:08:11;;;;;;;2.73;1.20;;;29.80;38.50;;;;;;4167918;28;20234;-80
2022/06/06 12:10:18;;;;;;;1.40;1.27;;;29.60;39.50;;;;;;4136029;28;20231;-80
2022/06/06 12:12:50;;;;;;;3.53;1.63;;;29.50;39.70;;;;;;4179798;28;20654;-80
2022/06/06 12:15:23;;;;;;;2.00;1.20;;;29.80;38.40;;;;;;4179418;28;20234;-80